sensor_id;sensor_type;location;lat;lon;timestamp;P1;durP1;ratioP1;P2;durP2;ratioP2
24439;SDS011;12618;54.386;18.394;2022-11-20T00:00:49;63.60;;;32.53;;
24439;SDS011;12618;54.386;18.394;2022-11-20T00:03:19;61.20;;;32.28;;
24439;SDS011;12618;54.386;18.394;2022-11-20T00:05:50;69.17;;;37.10;;
24439;SDS011;12618;54.386;18.394;2022-11-20T00:08:21;56.75;;;31.20;;
24439;SDS011;12618;54.386;18.394;2022-11-20T00:10:52;57.20;;;32.78;;
24439;SDS011;12618;54.386;18.394;2022-11-20T00:13:23;59.15;;;32.48;;
24439;SDS011;12618;54.386;18.394;2022-11-20T00:15:57;58.45;;;32.85;;
24439;SDS011;12618;54.386;18.394;2022-11-20T00:18:30;61.80;;;35.28;;
24439;SDS011;12618;54.386;18.394;2022-11-20T00:21:06;47.93;;;27.77;;
24439;SDS011;12618;54.386;18.394;2022-11-20T00:23:39;58.70;;;32.05;;
24439;SDS011;12618;54.386;18.394;2022-11-20T00:26:15;64.95;;;35.05;;
24439;SDS011;12618;54.386;18.394;2022-11-20T00:28:53;60.58;;;32.67;;
24439;SDS011;12618;54.386;18.394;2022-11-20T00:31:22;66.35;;;34.80;;
24439;SDS011;12618;54.386;18.394;2022-11-20T00:33:53;66.82;;;35.73;;
24439;SDS011;12618;54.386;18.394;2022-11-20T00:36:24;65.65;;;35.13;;
24439;SDS011;12618;54.386;18.394;2022-11-20T00:38:57;64.62;;;35.45;;
24439;SDS011;12618;54.386;18.394;2022-11-20T00:41:29;66.28;;;35.00;;
24439;SDS011;12618;54.386;18.394;2022-11-20T00:43:59;58.35;;;31.95;;
24439;SDS011;12618;54.386;18.394;2022-11-20T00:46:30;56.70;;;32.28;;
24439;SDS011;12618;54.386;18.394;2022-11-20T00:49:01;56.92;;;31.95;;
24439;SDS011;12618;54.386;18.394;2022-11-20T00:51:32;54.48;;;31.37;;
24439;SDS011;12618;54.386;18.394;2022-11-20T00:54:02;57.98;;;31.40;;
24439;SDS011;12618;54.386;18.394;2022-11-20T00:56:33;52.83;;;29.95;;
24439;SDS011;12618;54.386;18.394;2022-11-20T00:59:06;61.20;;;32.15;;
24439;SDS011;12618;54.386;18.394;2022-11-20T01:01:38;53.13;;;29.32;;
24439;SDS011;12618;54.386;18.394;2022-11-20T01:04:09;51.33;;;28.87;;
24439;SDS011;12618;54.386;18.394;2022-11-20T01:06:40;49.23;;;27.65;;
24439;SDS011;12618;54.386;18.394;2022-11-20T01:09:12;51.68;;;28.52;;
24439;SDS011;12618;54.386;18.394;2022-11-20T01:11:44;48.63;;;27.20;;
24439;SDS011;12618;54.386;18.394;2022-11-20T01:14:18;46.85;;;27.45;;
24439;SDS011;12618;54.386;18.394;2022-11-20T01:16:54;46.08;;;26.57;;
24439;SDS011;12618;54.386;18.394;2022-11-20T01:19:22;47.73;;;26.23;;
24439;SDS011;12618;54.386;18.394;2022-11-20T01:21:54;48.38;;;28.10;;
24439;SDS011;12618;54.386;18.394;2022-11-20T01:24:25;49.23;;;27.30;;
24439;SDS011;12618;54.386;18.394;2022-11-20T01:26:55;56.95;;;31.55;;
24439;SDS011;12618;54.386;18.394;2022-11-20T01:29:26;48.80;;;28.57;;
24439;SDS011;12618;54.386;18.394;2022-11-20T01:31:57;51.95;;;29.20;;
24439;SDS011;12618;54.386;18.394;2022-11-20T01:34:28;50.88;;;30.68;;
24439;SDS011;12618;54.386;18.394;2022-11-20T01:36:58;58.02;;;32.48;;
24439;SDS011;12618;54.386;18.394;2022-11-20T01:39:29;53.10;;;29.82;;
24439;SDS011;12618;54.386;18.394;2022-11-20T01:42:00;54.08;;;29.85;;
24439;SDS011;12618;54.386;18.394;2022-11-20T01:44:50;55.10;;;31.27;;
24439;SDS011;12618;54.386;18.394;2022-11-20T01:47:36;54.98;;;31.17;;
24439;SDS011;12618;54.386;18.394;2022-11-20T01:50:11;61.65;;;34.70;;
24439;SDS011;12618;54.386;18.394;2022-11-20T01:52:56;52.13;;;29.25;;
24439;SDS011;12618;54.386;18.394;2022-11-20T01:55:34;59.63;;;33.15;;
24439;SDS011;12618;54.386;18.394;2022-11-20T01:58:04;62.58;;;35.20;;
24439;SDS011;12618;54.386;18.394;2022-11-20T02:00:35;54.23;;;29.95;;
24439;SDS011;12618;54.386;18.394;2022-11-20T02:03:09;53.87;;;31.07;;
24439;SDS011;12618;54.386;18.394;2022-11-20T02:05:53;53.17;;;28.92;;
24439;SDS011;12618;54.386;18.394;2022-11-20T02:08:38;49.10;;;28.50;;
24439;SDS011;12618;54.386;18.394;2022-11-20T02:11:09;49.38;;;27.90;;
24439;SDS011;12618;54.386;18.394;2022-11-20T02:13:40;50.10;;;28.25;;
24439;SDS011;12618;54.386;18.394;2022-11-20T02:16:19;49.93;;;28.83;;
24439;SDS011;12618;54.386;18.394;2022-11-20T02:18:58;52.73;;;29.80;;
24439;SDS011;12618;54.386;18.394;2022-11-20T02:21:35;48.52;;;27.37;;
24439;SDS011;12618;54.386;18.394;2022-11-20T02:26:50;48.02;;;28.27;;
24439;SDS011;12618;54.386;18.394;2022-11-20T02:29:24;53.33;;;30.05;;
24439;SDS011;12618;54.386;18.394;2022-11-20T02:32:19;52.88;;;29.35;;
24439;SDS011;12618;54.386;18.394;2022-11-20T02:34:52;55.15;;;29.90;;
24439;SDS011;12618;54.386;18.394;2022-11-20T02:37:32;54.80;;;30.30;;
24439;SDS011;12618;54.386;18.394;2022-11-20T02:39:57;54.60;;;30.62;;
24439;SDS011;12618;54.386;18.394;2022-11-20T02:42:28;56.18;;;30.88;;
24439;SDS011;12618;54.386;18.394;2022-11-20T02:44:59;52.38;;;30.15;;
24439;SDS011;12618;54.386;18.394;2022-11-20T02:47:29;55.48;;;30.40;;
24439;SDS011;12618;54.386;18.394;2022-11-20T02:50:00;54.18;;;29.40;;
24439;SDS011;12618;54.386;18.394;2022-11-20T02:52:31;54.85;;;29.30;;
24439;SDS011;12618;54.386;18.394;2022-11-20T02:55:02;54.80;;;30.43;;
24439;SDS011;12618;54.386;18.394;2022-11-20T02:57:33;53.60;;;29.67;;
24439;SDS011;12618;54.386;18.394;2022-11-20T03:00:04;53.50;;;29.20;;
24439;SDS011;12618;54.386;18.394;2022-11-20T03:02:39;52.80;;;30.05;;
24439;SDS011;12618;54.386;18.394;2022-11-20T03:05:10;53.28;;;30.05;;
24439;SDS011;12618;54.386;18.394;2022-11-20T03:07:40;58.75;;;31.85;;
24439;SDS011;12618;54.386;18.394;2022-11-20T03:10:11;54.63;;;30.35;;
24439;SDS011;12618;54.386;18.394;2022-11-20T03:12:42;51.80;;;29.87;;
24439;SDS011;12618;54.386;18.394;2022-11-20T03:15:13;53.98;;;30.23;;
24439;SDS011;12618;54.386;18.394;2022-11-20T03:17:43;52.90;;;29.25;;
24439;SDS011;12618;54.386;18.394;2022-11-20T03:20:14;55.33;;;30.33;;
24439;SDS011;12618;54.386;18.394;2022-11-20T03:22:45;52.35;;;29.45;;
24439;SDS011;12618;54.386;18.394;2022-11-20T03:25:16;55.58;;;30.77;;
24439;SDS011;12618;54.386;18.394;2022-11-20T03:27:46;52.48;;;29.32;;
24439;SDS011;12618;54.386;18.394;2022-11-20T03:30:17;45.78;;;26.87;;
24439;SDS011;12618;54.386;18.394;2022-11-20T03:32:48;54.42;;;29.75;;
24439;SDS011;12618;54.386;18.394;2022-11-20T03:35:19;47.90;;;26.90;;
24439;SDS011;12618;54.386;18.394;2022-11-20T03:37:49;53.90;;;29.80;;
24439;SDS011;12618;54.386;18.394;2022-11-20T03:40:20;51.30;;;29.25;;
24439;SDS011;12618;54.386;18.394;2022-11-20T03:42:51;49.53;;;28.73;;
24439;SDS011;12618;54.386;18.394;2022-11-20T03:45:21;53.08;;;28.65;;
24439;SDS011;12618;54.386;18.394;2022-11-20T03:47:52;52.40;;;30.35;;
24439;SDS011;12618;54.386;18.394;2022-11-20T03:50:23;48.20;;;28.12;;
24439;SDS011;12618;54.386;18.394;2022-11-20T03:52:53;53.65;;;29.57;;
24439;SDS011;12618;54.386;18.394;2022-11-20T03:55:24;56.23;;;30.57;;
24439;SDS011;12618;54.386;18.394;2022-11-20T03:57:55;54.18;;;29.80;;
24439;SDS011;12618;54.386;18.394;2022-11-20T04:00:25;52.53;;;29.05;;
24439;SDS011;12618;54.386;18.394;2022-11-20T04:02:59;51.48;;;28.60;;
24439;SDS011;12618;54.386;18.394;2022-11-20T04:05:32;49.40;;;27.27;;
24439;SDS011;12618;54.386;18.394;2022-11-20T04:08:04;50.67;;;28.75;;
24439;SDS011;12618;54.386;18.394;2022-11-20T04:10:35;51.18;;;28.70;;
24439;SDS011;12618;54.386;18.394;2022-11-20T04:13:06;54.48;;;29.98;;
24439;SDS011;12618;54.386;18.394;2022-11-20T04:15:36;49.40;;;26.70;;
24439;SDS011;12618;54.386;18.394;2022-11-20T04:18:07;51.88;;;28.92;;
24439;SDS011;12618;54.386;18.394;2022-11-20T04:20:38;53.95;;;29.02;;
24439;SDS011;12618;54.386;18.394;2022-11-20T04:23:08;52.17;;;27.98;;
24439;SDS011;12618;54.386;18.394;2022-11-20T04:25:39;52.40;;;29.80;;
24439;SDS011;12618;54.386;18.394;2022-11-20T04:28:09;52.20;;;28.25;;
24439;SDS011;12618;54.386;18.394;2022-11-20T04:30:40;51.73;;;28.70;;
24439;SDS011;12618;54.386;18.394;2022-11-20T04:33:11;52.35;;;28.52;;
24439;SDS011;12618;54.386;18.394;2022-11-20T04:35:41;51.10;;;28.15;;
24439;SDS011;12618;54.386;18.394;2022-11-20T04:38:14;48.08;;;27.25;;
24439;SDS011;12618;54.386;18.394;2022-11-20T04:40:45;47.98;;;28.23;;
24439;SDS011;12618;54.386;18.394;2022-11-20T04:43:15;52.13;;;28.52;;
24439;SDS011;12618;54.386;18.394;2022-11-20T04:45:50;55.08;;;29.25;;
24439;SDS011;12618;54.386;18.394;2022-11-20T04:48:22;55.92;;;29.92;;
24439;SDS011;12618;54.386;18.394;2022-11-20T04:50:53;55.00;;;29.48;;
24439;SDS011;12618;54.386;18.394;2022-11-20T04:53:24;51.83;;;28.52;;
24439;SDS011;12618;54.386;18.394;2022-11-20T04:56:02;54.23;;;28.87;;
24439;SDS011;12618;54.386;18.394;2022-11-20T04:58:35;52.03;;;28.45;;
24439;SDS011;12618;54.386;18.394;2022-11-20T05:01:07;52.85;;;29.30;;
24439;SDS011;12618;54.386;18.394;2022-11-20T05:03:41;50.33;;;28.10;;
24439;SDS011;12618;54.386;18.394;2022-11-20T05:06:14;52.98;;;29.10;;
24439;SDS011;12618;54.386;18.394;2022-11-20T05:08:46;48.25;;;26.45;;
24439;SDS011;12618;54.386;18.394;2022-11-20T05:11:19;55.78;;;28.80;;
24439;SDS011;12618;54.386;18.394;2022-11-20T05:13:51;53.50;;;29.92;;
24439;SDS011;12618;54.386;18.394;2022-11-20T05:16:22;52.15;;;28.47;;
24439;SDS011;12618;54.386;18.394;2022-11-20T05:18:54;51.80;;;27.90;;
24439;SDS011;12618;54.386;18.394;2022-11-20T05:21:26;51.30;;;27.22;;
24439;SDS011;12618;54.386;18.394;2022-11-20T05:24:00;50.33;;;28.30;;
24439;SDS011;12618;54.386;18.394;2022-11-20T05:26:31;51.50;;;27.65;;
24439;SDS011;12618;54.386;18.394;2022-11-20T05:29:02;52.80;;;28.90;;
24439;SDS011;12618;54.386;18.394;2022-11-20T05:31:34;51.18;;;28.17;;
24439;SDS011;12618;54.386;18.394;2022-11-20T05:34:06;51.05;;;27.60;;
24439;SDS011;12618;54.386;18.394;2022-11-20T05:36:38;49.48;;;27.80;;
24439;SDS011;12618;54.386;18.394;2022-11-20T05:39:08;48.80;;;26.60;;
24439;SDS011;12618;54.386;18.394;2022-11-20T05:41:39;49.83;;;28.43;;
24439;SDS011;12618;54.386;18.394;2022-11-20T05:44:10;49.45;;;26.10;;
24439;SDS011;12618;54.386;18.394;2022-11-20T05:46:44;49.48;;;26.30;;
24439;SDS011;12618;54.386;18.394;2022-11-20T05:49:15;48.02;;;25.15;;
24439;SDS011;12618;54.386;18.394;2022-11-20T05:51:46;43.42;;;24.82;;
24439;SDS011;12618;54.386;18.394;2022-11-20T05:54:16;47.88;;;25.52;;
24439;SDS011;12618;54.386;18.394;2022-11-20T05:56:48;47.88;;;26.62;;
24439;SDS011;12618;54.386;18.394;2022-11-20T05:59:18;49.53;;;26.62;;
24439;SDS011;12618;54.386;18.394;2022-11-20T06:01:49;50.38;;;26.68;;
24439;SDS011;12618;54.386;18.394;2022-11-20T06:04:20;48.13;;;26.45;;
24439;SDS011;12618;54.386;18.394;2022-11-20T06:06:50;55.35;;;29.85;;
24439;SDS011;12618;54.386;18.394;2022-11-20T06:09:21;47.20;;;27.10;;
24439;SDS011;12618;54.386;18.394;2022-11-20T06:11:52;53.17;;;30.72;;
24439;SDS011;12618;54.386;18.394;2022-11-20T06:14:22;51.90;;;29.02;;
24439;SDS011;12618;54.386;18.394;2022-11-20T06:16:53;58.13;;;29.15;;
24439;SDS011;12618;54.386;18.394;2022-11-20T06:19:24;49.15;;;27.95;;
24439;SDS011;12618;54.386;18.394;2022-11-20T06:21:54;52.03;;;27.07;;
24439;SDS011;12618;54.386;18.394;2022-11-20T06:24:25;49.42;;;27.60;;
24439;SDS011;12618;54.386;18.394;2022-11-20T06:26:55;52.80;;;28.42;;
24439;SDS011;12618;54.386;18.394;2022-11-20T06:29:26;51.25;;;29.80;;
24439;SDS011;12618;54.386;18.394;2022-11-20T06:31:57;57.53;;;31.42;;
24439;SDS011;12618;54.386;18.394;2022-11-20T06:34:27;51.05;;;28.15;;
24439;SDS011;12618;54.386;18.394;2022-11-20T06:36:58;55.52;;;29.45;;
24439;SDS011;12618;54.386;18.394;2022-11-20T06:39:29;57.50;;;30.30;;
24439;SDS011;12618;54.386;18.394;2022-11-20T06:41:59;59.83;;;30.32;;
24439;SDS011;12618;54.386;18.394;2022-11-20T06:44:30;51.13;;;27.45;;
24439;SDS011;12618;54.386;18.394;2022-11-20T06:47:01;50.28;;;28.20;;
24439;SDS011;12618;54.386;18.394;2022-11-20T06:49:31;49.15;;;27.20;;
24439;SDS011;12618;54.386;18.394;2022-11-20T06:52:04;37.70;;;20.75;;
24439;SDS011;12618;54.386;18.394;2022-11-20T06:54:34;49.77;;;25.65;;
24439;SDS011;12618;54.386;18.394;2022-11-20T06:57:05;48.70;;;25.30;;
24439;SDS011;12618;54.386;18.394;2022-11-20T06:59:36;55.05;;;28.27;;
24439;SDS011;12618;54.386;18.394;2022-11-20T07:02:09;56.28;;;28.77;;
24439;SDS011;12618;54.386;18.394;2022-11-20T07:04:40;55.60;;;28.30;;
24439;SDS011;12618;54.386;18.394;2022-11-20T07:07:11;53.02;;;28.23;;
24439;SDS011;12618;54.386;18.394;2022-11-20T07:09:42;53.85;;;28.25;;
24439;SDS011;12618;54.386;18.394;2022-11-20T07:12:12;59.33;;;29.63;;
24439;SDS011;12618;54.386;18.394;2022-11-20T07:14:43;64.40;;;31.05;;
24439;SDS011;12618;54.386;18.394;2022-11-20T07:17:14;62.85;;;30.27;;
24439;SDS011;12618;54.386;18.394;2022-11-20T07:19:44;52.93;;;28.52;;
24439;SDS011;12618;54.386;18.394;2022-11-20T07:22:15;56.92;;;29.52;;
24439;SDS011;12618;54.386;18.394;2022-11-20T07:24:46;54.35;;;27.37;;
24439;SDS011;12618;54.386;18.394;2022-11-20T07:27:16;67.87;;;33.65;;
24439;SDS011;12618;54.386;18.394;2022-11-20T07:29:47;67.10;;;35.15;;
24439;SDS011;12618;54.386;18.394;2022-11-20T07:32:17;62.67;;;31.57;;
24439;SDS011;12618;54.386;18.394;2022-11-20T07:34:48;102.30;;;47.85;;
24439;SDS011;12618;54.386;18.394;2022-11-20T07:37:19;102.95;;;51.37;;
24439;SDS011;12618;54.386;18.394;2022-11-20T07:39:49;107.30;;;51.18;;
24439;SDS011;12618;54.386;18.394;2022-11-20T07:42:20;139.97;;;61.77;;
24439;SDS011;12618;54.386;18.394;2022-11-20T07:44:51;129.25;;;57.73;;
24439;SDS011;12618;54.386;18.394;2022-11-20T07:47:21;129.85;;;60.08;;
24439;SDS011;12618;54.386;18.394;2022-11-20T07:49:52;63.02;;;32.40;;
24439;SDS011;12618;54.386;18.394;2022-11-20T07:52:22;59.35;;;31.07;;
24439;SDS011;12618;54.386;18.394;2022-11-20T07:54:53;87.65;;;47.98;;
24439;SDS011;12618;54.386;18.394;2022-11-20T07:57:24;74.97;;;37.90;;
24439;SDS011;12618;54.386;18.394;2022-11-20T07:59:54;53.15;;;28.83;;
24439;SDS011;12618;54.386;18.394;2022-11-20T08:02:25;52.38;;;27.07;;
24439;SDS011;12618;54.386;18.394;2022-11-20T08:04:56;50.40;;;28.02;;
24439;SDS011;12618;54.386;18.394;2022-11-20T08:07:27;48.75;;;26.23;;
24439;SDS011;12618;54.386;18.394;2022-11-20T08:12:51;54.03;;;28.02;;
24439;SDS011;12618;54.386;18.394;2022-11-20T08:15:41;50.13;;;27.03;;
24439;SDS011;12618;54.386;18.394;2022-11-20T08:18:17;47.73;;;26.65;;
24439;SDS011;12618;54.386;18.394;2022-11-20T08:20:48;48.55;;;24.67;;
24439;SDS011;12618;54.386;18.394;2022-11-20T08:23:19;49.55;;;25.60;;
24439;SDS011;12618;54.386;18.394;2022-11-20T08:25:49;48.28;;;26.70;;
24439;SDS011;12618;54.386;18.394;2022-11-20T08:28:21;48.42;;;25.48;;
24439;SDS011;12618;54.386;18.394;2022-11-20T08:30:57;47.20;;;25.17;;
24439;SDS011;12618;54.386;18.394;2022-11-20T08:33:26;49.67;;;25.32;;
24439;SDS011;12618;54.386;18.394;2022-11-20T08:36:00;49.03;;;25.80;;
24439;SDS011;12618;54.386;18.394;2022-11-20T08:38:34;52.90;;;27.77;;
24439;SDS011;12618;54.386;18.394;2022-11-20T08:41:05;46.05;;;25.62;;
24439;SDS011;12618;54.386;18.394;2022-11-20T08:43:55;52.45;;;27.02;;
24439;SDS011;12618;54.386;18.394;2022-11-20T08:46:30;53.05;;;27.55;;
24439;SDS011;12618;54.386;18.394;2022-11-20T08:49:04;53.48;;;28.52;;
24439;SDS011;12618;54.386;18.394;2022-11-20T08:51:36;53.80;;;28.77;;
24439;SDS011;12618;54.386;18.394;2022-11-20T08:54:08;53.73;;;27.20;;
24439;SDS011;12618;54.386;18.394;2022-11-20T08:56:39;72.12;;;37.20;;
24439;SDS011;12618;54.386;18.394;2022-11-20T08:59:10;76.17;;;38.83;;
24439;SDS011;12618;54.386;18.394;2022-11-20T09:01:41;99.77;;;45.55;;
24439;SDS011;12618;54.386;18.394;2022-11-20T09:04:11;69.42;;;33.95;;
24439;SDS011;12618;54.386;18.394;2022-11-20T09:06:44;63.10;;;32.23;;
24439;SDS011;12618;54.386;18.394;2022-11-20T09:09:15;71.35;;;36.03;;
24439;SDS011;12618;54.386;18.394;2022-11-20T09:11:45;67.25;;;34.58;;
24439;SDS011;12618;54.386;18.394;2022-11-20T09:14:17;72.55;;;36.53;;
24439;SDS011;12618;54.386;18.394;2022-11-20T09:16:47;59.48;;;30.27;;
24439;SDS011;12618;54.386;18.394;2022-11-20T09:19:18;64.77;;;34.67;;
24439;SDS011;12618;54.386;18.394;2022-11-20T09:21:49;60.38;;;32.05;;
24439;SDS011;12618;54.386;18.394;2022-11-20T09:24:19;69.50;;;35.55;;
24439;SDS011;12618;54.386;18.394;2022-11-20T09:26:51;62.55;;;32.90;;
24439;SDS011;12618;54.386;18.394;2022-11-20T09:29:21;63.33;;;32.63;;
24439;SDS011;12618;54.386;18.394;2022-11-20T09:31:52;57.53;;;30.30;;
24439;SDS011;12618;54.386;18.394;2022-11-20T09:34:23;56.85;;;30.02;;
24439;SDS011;12618;54.386;18.394;2022-11-20T09:36:54;61.15;;;31.07;;
24439;SDS011;12618;54.386;18.394;2022-11-20T09:39:24;57.40;;;30.40;;
24439;SDS011;12618;54.386;18.394;2022-11-20T09:41:58;60.83;;;31.70;;
24439;SDS011;12618;54.386;18.394;2022-11-20T09:44:53;62.78;;;31.70;;
24439;SDS011;12618;54.386;18.394;2022-11-20T09:55:45;60.73;;;32.10;;
24439;SDS011;12618;54.386;18.394;2022-11-20T09:58:39;64.72;;;32.73;;
24439;SDS011;12618;54.386;18.394;2022-11-20T10:01:00;63.30;;;33.00;;
24439;SDS011;12618;54.386;18.394;2022-11-20T10:03:56;67.35;;;33.53;;
24439;SDS011;12618;54.386;18.394;2022-11-20T10:06:29;71.72;;;36.28;;
24439;SDS011;12618;54.386;18.394;2022-11-20T10:17:46;64.15;;;31.05;;
24439;SDS011;12618;54.386;18.394;2022-11-20T10:28:52;66.45;;;31.60;;
24439;SDS011;12618;54.386;18.394;2022-11-20T10:31:40;62.05;;;30.68;;
24439;SDS011;12618;54.386;18.394;2022-11-20T10:37:00;62.90;;;31.87;;
24439;SDS011;12618;54.386;18.394;2022-11-20T10:42:36;59.83;;;30.77;;
24439;SDS011;12618;54.386;18.394;2022-11-20T10:45:15;66.05;;;32.10;;
24439;SDS011;12618;54.386;18.394;2022-11-20T10:47:45;63.45;;;31.37;;
24439;SDS011;12618;54.386;18.394;2022-11-20T10:50:19;65.15;;;32.00;;
24439;SDS011;12618;54.386;18.394;2022-11-20T10:58:20;74.05;;;35.68;;
24439;SDS011;12618;54.386;18.394;2022-11-20T11:01:04;70.08;;;34.88;;
24439;SDS011;12618;54.386;18.394;2022-11-20T11:03:36;96.50;;;45.80;;
24439;SDS011;12618;54.386;18.394;2022-11-20T11:06:10;79.17;;;40.35;;
24439;SDS011;12618;54.386;18.394;2022-11-20T11:08:45;64.95;;;32.78;;
24439;SDS011;12618;54.386;18.394;2022-11-20T11:11:23;88.95;;;46.05;;
24439;SDS011;12618;54.386;18.394;2022-11-20T11:14:06;70.95;;;35.58;;
24439;SDS011;12618;54.386;18.394;2022-11-20T11:16:52;62.20;;;32.65;;
24439;SDS011;12618;54.386;18.394;2022-11-20T11:19:25;65.80;;;36.68;;
24439;SDS011;12618;54.386;18.394;2022-11-20T11:21:56;75.80;;;36.20;;
24439;SDS011;12618;54.386;18.394;2022-11-20T11:24:28;65.70;;;32.53;;
24439;SDS011;12618;54.386;18.394;2022-11-20T11:27:01;65.28;;;32.63;;
24439;SDS011;12618;54.386;18.394;2022-11-20T11:29:34;68.17;;;33.42;;
24439;SDS011;12618;54.386;18.394;2022-11-20T11:32:15;63.63;;;32.60;;
24439;SDS011;12618;54.386;18.394;2022-11-20T11:35:01;58.13;;;30.10;;
24439;SDS011;12618;54.386;18.394;2022-11-20T11:37:33;63.17;;;32.20;;
24439;SDS011;12618;54.386;18.394;2022-11-20T11:42:41;58.25;;;28.85;;
24439;SDS011;12618;54.386;18.394;2022-11-20T11:45:14;54.95;;;28.25;;
24439;SDS011;12618;54.386;18.394;2022-11-20T11:47:47;57.58;;;29.45;;
24439;SDS011;12618;54.386;18.394;2022-11-20T11:50:20;61.40;;;30.45;;
24439;SDS011;12618;54.386;18.394;2022-11-20T11:52:58;63.38;;;30.17;;
24439;SDS011;12618;54.386;18.394;2022-11-20T11:56:21;59.63;;;28.30;;
24439;SDS011;12618;54.386;18.394;2022-11-20T12:01:13;58.98;;;29.75;;
24439;SDS011;12618;54.386;18.394;2022-11-20T12:04:00;58.50;;;28.12;;
24439;SDS011;12618;54.386;18.394;2022-11-20T12:06:32;56.88;;;30.15;;
24439;SDS011;12618;54.386;18.394;2022-11-20T12:09:08;58.65;;;28.42;;
24439;SDS011;12618;54.386;18.394;2022-11-20T12:14:20;62.95;;;30.12;;
24439;SDS011;12618;54.386;18.394;2022-11-20T12:17:00;64.20;;;33.23;;
24439;SDS011;12618;54.386;18.394;2022-11-20T12:19:33;62.58;;;31.23;;
24439;SDS011;12618;54.386;18.394;2022-11-20T12:22:25;66.80;;;34.33;;
24439;SDS011;12618;54.386;18.394;2022-11-20T12:24:55;63.58;;;33.23;;
24439;SDS011;12618;54.386;18.394;2022-11-20T12:30:16;71.05;;;36.85;;
24439;SDS011;12618;54.386;18.394;2022-11-20T12:53:31;68.95;;;34.95;;
24439;SDS011;12618;54.386;18.394;2022-11-20T12:56:31;71.05;;;34.90;;
24439;SDS011;12618;54.386;18.394;2022-11-20T13:07:34;64.85;;;33.08;;
24439;SDS011;12618;54.386;18.394;2022-11-20T13:10:05;64.72;;;34.35;;
24439;SDS011;12618;54.386;18.394;2022-11-20T13:12:44;66.95;;;34.15;;
24439;SDS011;12618;54.386;18.394;2022-11-20T13:15:37;65.92;;;34.33;;
24439;SDS011;12618;54.386;18.394;2022-11-20T13:18:09;71.62;;;36.05;;
24439;SDS011;12618;54.386;18.394;2022-11-20T13:20:42;73.50;;;37.88;;
24439;SDS011;12618;54.386;18.394;2022-11-20T13:23:24;68.42;;;35.70;;
24439;SDS011;12618;54.386;18.394;2022-11-20T13:26:03;68.10;;;35.38;;
24439;SDS011;12618;54.386;18.394;2022-11-20T13:28:36;71.55;;;36.63;;
24439;SDS011;12618;54.386;18.394;2022-11-20T13:31:22;74.32;;;36.70;;
24439;SDS011;12618;54.386;18.394;2022-11-20T13:33:56;70.92;;;36.93;;
24439;SDS011;12618;54.386;18.394;2022-11-20T13:36:28;126.18;;;59.38;;
24439;SDS011;12618;54.386;18.394;2022-11-20T13:39:01;78.47;;;37.23;;
24439;SDS011;12618;54.386;18.394;2022-11-20T13:41:37;83.00;;;41.40;;
24439;SDS011;12618;54.386;18.394;2022-11-20T13:44:15;69.95;;;34.88;;
24439;SDS011;12618;54.386;18.394;2022-11-20T13:46:57;69.45;;;34.67;;
24439;SDS011;12618;54.386;18.394;2022-11-20T13:55:02;56.55;;;29.55;;
24439;SDS011;12618;54.386;18.394;2022-11-20T14:01:00;58.08;;;30.10;;
24439;SDS011;12618;54.386;18.394;2022-11-20T14:06:11;61.55;;;30.92;;
24439;SDS011;12618;54.386;18.394;2022-11-20T14:08:48;87.08;;;40.83;;
24439;SDS011;12618;54.386;18.394;2022-11-20T14:11:27;76.20;;;38.02;;
24439;SDS011;12618;54.386;18.394;2022-11-20T14:14:04;109.17;;;47.70;;
24439;SDS011;12618;54.386;18.394;2022-11-20T14:16:36;87.62;;;40.05;;
24439;SDS011;12618;54.386;18.394;2022-11-20T14:21:55;71.70;;;33.40;;
24439;SDS011;12618;54.386;18.394;2022-11-20T14:24:43;75.03;;;35.35;;
24439;SDS011;12618;54.386;18.394;2022-11-20T14:27:16;141.30;;;56.63;;
24439;SDS011;12618;54.386;18.394;2022-11-20T14:29:49;150.53;;;57.90;;
24439;SDS011;12618;54.386;18.394;2022-11-20T14:32:22;164.40;;;59.75;;
24439;SDS011;12618;54.386;18.394;2022-11-20T14:34:55;203.98;;;69.58;;
24439;SDS011;12618;54.386;18.394;2022-11-20T14:37:30;100.50;;;41.68;;
24439;SDS011;12618;54.386;18.394;2022-11-20T14:42:57;78.22;;;36.63;;
24439;SDS011;12618;54.386;18.394;2022-11-20T14:45:29;72.90;;;35.23;;
24439;SDS011;12618;54.386;18.394;2022-11-20T14:48:00;82.55;;;39.25;;
24439;SDS011;12618;54.386;18.394;2022-11-20T14:50:31;86.87;;;40.15;;
24439;SDS011;12618;54.386;18.394;2022-11-20T14:53:02;167.93;;;60.95;;
24439;SDS011;12618;54.386;18.394;2022-11-20T14:55:34;182.60;;;72.20;;
24439;SDS011;12618;54.386;18.394;2022-11-20T14:58:23;211.85;;;86.92;;
24439;SDS011;12618;54.386;18.394;2022-11-20T15:00:57;130.47;;;55.15;;
24439;SDS011;12618;54.386;18.394;2022-11-20T15:03:33;106.17;;;46.92;;
24439;SDS011;12618;54.386;18.394;2022-11-20T15:06:07;120.53;;;50.83;;
24439;SDS011;12618;54.386;18.394;2022-11-20T15:08:50;110.37;;;49.50;;
24439;SDS011;12618;54.386;18.394;2022-11-20T15:11:24;97.22;;;46.83;;
24439;SDS011;12618;54.386;18.394;2022-11-20T15:14:02;87.95;;;42.67;;
24439;SDS011;12618;54.386;18.394;2022-11-20T15:16:35;101.12;;;47.27;;
24439;SDS011;12618;54.386;18.394;2022-11-20T15:19:08;84.40;;;41.88;;
24439;SDS011;12618;54.386;18.394;2022-11-20T15:21:40;88.95;;;44.18;;
24439;SDS011;12618;54.386;18.394;2022-11-20T15:24:11;102.25;;;47.75;;
24439;SDS011;12618;54.386;18.394;2022-11-20T15:26:42;110.28;;;48.75;;
24439;SDS011;12618;54.386;18.394;2022-11-20T15:29:14;118.42;;;48.02;;
24439;SDS011;12618;54.386;18.394;2022-11-20T15:31:47;91.22;;;42.43;;
24439;SDS011;12618;54.386;18.394;2022-11-20T15:34:18;79.25;;;39.75;;
24439;SDS011;12618;54.386;18.394;2022-11-20T15:36:49;84.90;;;41.85;;
24439;SDS011;12618;54.386;18.394;2022-11-20T15:39:20;77.55;;;38.75;;
24439;SDS011;12618;54.386;18.394;2022-11-20T15:41:51;74.25;;;37.98;;
24439;SDS011;12618;54.386;18.394;2022-11-20T15:44:21;75.50;;;39.18;;
24439;SDS011;12618;54.386;18.394;2022-11-20T15:46:52;87.92;;;40.95;;
24439;SDS011;12618;54.386;18.394;2022-11-20T15:49:23;75.80;;;38.25;;
24439;SDS011;12618;54.386;18.394;2022-11-20T15:51:53;95.42;;;47.20;;
24439;SDS011;12618;54.386;18.394;2022-11-20T15:54:24;107.32;;;52.05;;
24439;SDS011;12618;54.386;18.394;2022-11-20T15:56:55;102.80;;;48.40;;
24439;SDS011;12618;54.386;18.394;2022-11-20T15:59:25;92.67;;;44.83;;
24439;SDS011;12618;54.386;18.394;2022-11-20T16:01:56;85.55;;;44.25;;
24439;SDS011;12618;54.386;18.394;2022-11-20T16:04:27;91.72;;;49.38;;
24439;SDS011;12618;54.386;18.394;2022-11-20T16:06:58;169.17;;;97.65;;
24439;SDS011;12618;54.386;18.394;2022-11-20T16:09:31;79.62;;;43.45;;
24439;SDS011;12618;54.386;18.394;2022-11-20T16:12:02;81.55;;;41.33;;
24439;SDS011;12618;54.386;18.394;2022-11-20T16:14:33;72.97;;;38.93;;
24439;SDS011;12618;54.386;18.394;2022-11-20T16:17:22;75.70;;;38.33;;
24439;SDS011;12618;54.386;18.394;2022-11-20T16:19:54;78.43;;;39.90;;
24439;SDS011;12618;54.386;18.394;2022-11-20T16:22:25;81.15;;;42.03;;